Bloomington, IN

4:12 PM EDT on August 04, 2015 (GMT -0400)
Sample Road | | Change Station
CLOSE
Current Station
Personal Weather Station
Location: Bloomington, IN
Elevation: 781 ft
Nearby Weather Stations

Elev 781 ft 39.26 °N, 86.51 °W | Updated 5 seconds ago

Partly Cloudy
Partly Cloudy
83.7 °F
Feels Like 86 °F
N
1.8
Wind Variable Wind from SSE
Gusts 2.5 mph

Today
High -- | Low -- °F
--% Chance of Precip.
Yesterday
High -- | Low -- °F
Precip. -- in
6:48 AM 8:55 PM
Waning Gibbous, 75% visible
Pressure 29.99 in
Visibility 10.0 miles
Clouds Few 4300 ft
Mostly Cloudy 11000 ft
Heat Index 86 °F
Dew Point 67 °F
Humidity 57%
Rainfall 0.00 in
Snow Depth Not available.
UV 3.0 out of 12
Pollen 7.30 out of 12
Air Quality Not available.
Flu Activity Not available.
METAR KBMG 041953Z 31004KT 10SM FEW043 BKN110 27/18 A3001 RMK AO2 SLP156 T02720183

More Conditions Fewer Conditions

Pressure 29.99 in
Visibility 10.0 miles
Clouds Few 4300 ft
Mostly Cloudy 11000 ft
Heat Index 86 °F
Dew Point 67 °F
Humidity 57%
Rainfall 0.00 in
Snow Depth Not available.
UV 3.0 out of 12
Pollen 7.30 out of 12
Air Quality Not available.
Flu Activity Not available.
METAR KBMG 041953Z 31004KT 10SM FEW043 BKN110 27/18 A3001 RMK AO2 SLP156 T02720183

More Conditions Fewer Conditions

10-Day Weather Forecast

×

Almanac

Astronomy

Aug. 04, 2015 Rise Set
Actual Time
Civil Twilight
Nautical Twilight
Astronomical Twilight
Moon
Length of Visible Light
Length of Day
Tomorrow will be .
, % of the Moon is Illuminated

Today's Extremes

State Highs State Lows

Community

WunderPhotos

Upload Photos

1,843,962 photos uploaded!

WunderBlogs® & News

Nearby

Air Quality

  Air Quality AQ Index Pollutant
Not available.

Snow Depth

Station Depth Elevation

Earthquake Activity

City Distance Mag. Time & Date
Minimum magnitude displayed is 2.5.

Coastal Water Temperatures

Place Temperature

Stations

Nearby Weather Stations

Station Location Temp. Windchill Dew Point Humidity Wind Precip. Elev Updated Type